Time;durP1;ratioP1;P1;durP2;ratioP2;P2;SDS_P1;SDS_P2;PMS_P1;PMS_P2;Temp;Humidity;BMP_temperature;BMP_pressure;BME280_temperature;BME280_humidity;BME280_pressure;Samples;Min_cycle;Max_cycle;Signal;HPM_P1;HPM_P2
2022/02/28 00:00:19;;;;;;;75.20;35.40;;;-0.10;99.90;;;;;;2064670;28;20429;-75
2022/02/28 00:01:23;;;;;;;71.65;34.30;;;-0.10;99.90;;;;;;2065050;28;20058;-76
2022/02/28 00:02:23;;;;;;;72.82;34.50;;;-0.10;99.90;;;;;;2058252;28;20057;-73
2022/02/28 00:03:24;;;;;;;72.60;34.53;;;-0.10;99.90;;;;;;2057314;28;20027;-78
2022/02/28 00:04:25;;;;;;;68.10;33.58;;;-0.10;99.90;;;;;;2057234;28;20105;-74
2022/02/28 00:05:26;;;;;;;75.03;36.25;;;-0.10;99.90;;;;;;2057166;28;20039;-75
2022/02/28 00:06:27;;;;;;;73.93;34.83;;;-0.10;99.90;;;;;;2056965;28;20031;-74
2022/02/28 00:07:28;;;;;;;72.53;34.55;;;-0.10;99.90;;;;;;2056943;28;20522;-75
2022/02/28 00:08:29;;;;;;;72.20;35.53;;;-0.10;99.90;;;;;;2060491;28;20038;-76
2022/02/28 00:09:30;;;;;;;72.82;34.67;;;-0.10;99.90;;;;;;2070952;28;20069;-74
2022/02/28 00:10:30;;;;;;;70.30;34.10;;;-0.10;99.90;;;;;;2073530;28;20100;-74
2022/02/28 00:11:31;;;;;;;71.70;34.53;;;-0.10;99.90;;;;;;2072495;28;20040;-74
2022/02/28 00:12:32;;;;;;;69.45;34.20;;;-0.20;99.90;;;;;;2064257;28;20026;-75
2022/02/28 00:13:33;;;;;;;71.30;35.17;;;-0.10;99.90;;;;;;2065470;28;20482;-75
2022/02/28 00:14:34;;;;;;;76.25;35.97;;;-0.10;99.90;;;;;;2064003;28;20034;-73
2022/02/28 00:15:35;;;;;;;78.93;36.75;;;-0.10;99.90;;;;;;2064429;28;20019;-73
2022/02/28 00:16:35;;;;;;;76.57;35.65;;;-0.20;99.90;;;;;;2073694;28;20402;-74
2022/02/28 00:17:38;;;;;;;77.60;36.13;;;-0.10;99.90;;;;;;2072285;28;20021;-73
2022/02/28 00:18:39;;;;;;;78.85;36.45;;;-0.20;99.90;;;;;;2064609;28;20486;-73
2022/02/28 00:19:40;;;;;;;77.35;36.92;;;-0.20;99.90;;;;;;2050163;29;20035;-73
2022/02/28 00:20:41;;;;;;;79.75;36.47;;;-0.10;99.90;;;;;;2048978;28;20050;-72
2022/02/28 00:21:41;;;;;;;84.25;37.28;;;-0.10;99.90;;;;;;2064202;28;20031;-72
2022/02/28 00:22:43;;;;;;;80.22;36.30;;;-0.10;99.90;;;;;;2074610;28;20790;-74
2022/02/28 00:23:43;;;;;;;80.50;37.17;;;-0.10;99.90;;;;;;2065258;28;20030;-75
2022/02/28 00:24:44;;;;;;;80.65;37.72;;;-0.10;99.90;;;;;;2056013;28;20223;-73
2022/02/28 00:25:45;;;;;;;78.13;36.33;;;-0.10;99.90;;;;;;2057238;28;20023;-74
2022/02/28 00:26:46;;;;;;;78.35;36.22;;;-0.10;99.90;;;;;;2063998;28;20502;-73
2022/02/28 00:27:47;;;;;;;79.55;37.55;;;-0.10;99.90;;;;;;2051928;28;20028;-73
2022/02/28 00:28:48;;;;;;;78.55;36.50;;;-0.10;99.90;;;;;;2065454;28;20078;-73
2022/02/28 00:29:49;;;;;;;80.20;37.03;;;-0.10;99.90;;;;;;2072614;28;20038;-72
2022/02/28 00:30:50;;;;;;;77.75;36.40;;;-0.10;99.90;;;;;;2072941;28;20030;-74
2022/02/28 00:31:51;;;;;;;81.78;37.30;;;-0.10;99.90;;;;;;2066313;28;20049;-73
2022/02/28 00:32:52;;;;;;;84.15;37.25;;;-0.10;99.90;;;;;;2064485;28;20033;-73
2022/02/28 00:33:56;;;;;;;82.90;37.03;;;-0.10;99.90;;;;;;2064924;28;20014;-74
2022/02/28 00:34:57;;;;;;;85.15;37.47;;;-0.10;99.90;;;;;;2065895;28;20033;-73
2022/02/28 00:35:58;;;;;;;82.93;36.75;;;-0.10;99.90;;;;;;2066686;28;20026;-75
2022/02/28 00:37:00;;;;;;;76.82;35.92;;;-0.10;99.90;;;;;;2059167;28;20029;-74
2022/02/28 00:38:03;;;;;;;83.18;36.85;;;-0.10;99.90;;;;;;2059026;28;20018;-75
2022/02/28 00:39:06;;;;;;;78.78;35.80;;;0.00;99.90;;;;;;2074174;28;20030;-75
2022/02/28 00:40:08;;;;;;;78.47;36.28;;;0.00;99.90;;;;;;2075278;28;20022;-74
2022/02/28 00:41:08;;;;;;;79.45;35.90;;;-0.10;99.90;;;;;;2074152;28;20034;-74
2022/02/28 00:42:09;;;;;;;78.25;35.75;;;-0.10;99.90;;;;;;2073770;28;20033;-72
2022/02/28 00:43:10;;;;;;;79.60;36.45;;;-0.10;99.90;;;;;;2075294;28;20034;-74
2022/02/28 00:44:11;;;;;;;76.15;35.72;;;-0.10;99.90;;;;;;2074139;28;20029;-72
2022/02/28 00:45:12;;;;;;;81.43;36.45;;;-0.10;99.90;;;;;;2065889;28;20592;-73
2022/02/28 00:46:13;;;;;;;78.15;35.00;;;0.00;99.90;;;;;;2066845;28;20123;-73
2022/02/28 00:47:14;;;;;;;77.60;35.75;;;-0.10;99.90;;;;;;2066539;28;20022;-72
2022/02/28 00:48:15;;;;;;;79.68;36.15;;;-0.10;99.90;;;;;;2065345;28;20054;-73
2022/02/28 00:49:16;;;;;;;76.00;35.50;;;-0.10;99.90;;;;;;2066871;28;20049;-72
2022/02/28 00:50:16;;;;;;;77.63;36.63;;;-0.10;99.90;;;;;;2066396;28;20465;-72
2022/02/28 00:51:17;;;;;;;77.88;34.67;;;-0.10;99.90;;;;;;2066886;28;20142;-76
2022/02/28 00:52:18;;;;;;;73.63;34.08;;;-0.10;99.90;;;;;;2068335;28;20030;-73
2022/02/28 00:53:19;;;;;;;75.10;34.78;;;-0.10;99.90;;;;;;2066100;28;20022;-74
2022/02/28 00:54:21;;;;;;;72.88;33.72;;;-0.10;99.90;;;;;;2065395;28;20030;-74
2022/02/28 00:55:22;;;;;;;72.40;33.30;;;-0.10;99.90;;;;;;2067223;28;20023;-73
2022/02/28 00:56:22;;;;;;;71.47;33.47;;;-0.10;99.90;;;;;;2074596;28;20442;-74
2022/02/28 00:57:23;;;;;;;74.03;34.03;;;-0.10;99.90;;;;;;2065965;28;20039;-74
2022/02/28 00:58:24;;;;;;;68.90;32.55;;;-0.10;99.90;;;;;;2065426;28;20038;-74
2022/02/28 00:59:25;;;;;;;71.47;33.22;;;-0.10;99.90;;;;;;2066306;28;20121;-73
2022/02/28 01:00:27;;;;;;;71.85;32.90;;;-0.10;99.90;;;;;;2066441;28;20044;-73
2022/02/28 01:01:28;;;;;;;70.63;33.47;;;-0.20;99.90;;;;;;2067037;28;20717;-74
2022/02/28 01:02:28;;;;;;;70.75;32.90;;;-0.20;99.90;;;;;;2066119;28;20081;-74
2022/02/28 01:03:30;;;;;;;71.90;33.33;;;-0.10;99.90;;;;;;2066344;28;20035;-73
2022/02/28 01:04:30;;;;;;;72.35;33.45;;;-0.20;99.90;;;;;;2058444;28;20078;-73
2022/02/28 01:05:31;;;;;;;72.03;34.08;;;-0.20;99.90;;;;;;2058130;28;20031;-73
2022/02/28 01:06:33;;;;;;;72.15;33.08;;;-0.20;99.90;;;;;;2058041;28;20022;-73
2022/02/28 01:07:35;;;;;;;71.03;33.05;;;-0.20;99.90;;;;;;2058729;28;20494;-72
2022/02/28 01:08:35;;;;;;;70.30;33.17;;;-0.20;99.90;;;;;;2058038;28;20022;-72
2022/02/28 01:09:36;;;;;;;72.53;33.80;;;-0.20;99.90;;;;;;2058303;28;20118;-74
2022/02/28 01:10:36;;;;;;;71.88;32.35;;;-0.20;99.90;;;;;;2058889;28;20033;-73
2022/02/28 01:11:37;;;;;;;72.05;32.78;;;-0.20;99.90;;;;;;2067122;28;20050;-73
2022/02/28 01:12:38;;;;;;;72.88;33.22;;;-0.20;99.90;;;;;;2067772;28;20247;-72
2022/02/28 01:13:39;;;;;;;69.03;33.53;;;-0.20;99.90;;;;;;2059094;28;20027;-72
2022/02/28 01:14:40;;;;;;;72.72;33.17;;;-0.20;99.90;;;;;;2058486;28;20033;-72
2022/02/28 01:15:41;;;;;;;69.55;32.78;;;-0.20;99.90;;;;;;2066621;28;20501;-72
2022/02/28 01:16:41;;;;;;;65.25;31.10;;;-0.20;99.90;;;;;;2050090;29;20129;-72
2022/02/28 01:17:43;;;;;;;72.75;33.08;;;-0.20;99.90;;;;;;2049799;28;20035;-73
2022/02/28 01:18:43;;;;;;;66.32;31.50;;;-0.20;99.90;;;;;;2050045;29;20390;-74
2022/02/28 01:19:44;;;;;;;70.45;32.28;;;-0.20;99.90;;;;;;2049989;29;20039;-72
2022/02/28 01:20:45;;;;;;;71.00;32.80;;;-0.20;99.90;;;;;;2049882;28;20035;-74
2022/02/28 01:21:46;;;;;;;72.55;33.42;;;-0.20;99.90;;;;;;2057924;28;20058;-73
2022/02/28 01:22:46;;;;;;;64.90;33.00;;;-0.20;99.90;;;;;;2058350;28;20034;-74
2022/02/28 01:23:47;;;;;;;69.20;31.25;;;-0.20;99.90;;;;;;2066593;28;20089;-74
2022/02/28 01:24:48;;;;;;;65.93;30.83;;;-0.20;99.90;;;;;;2065960;28;20030;-76
2022/02/28 01:25:48;;;;;;;66.13;31.17;;;-0.20;99.90;;;;;;2049616;28;20047;-73
2022/02/28 01:26:49;;;;;;;70.28;33.50;;;-0.30;99.90;;;;;;2050212;29;20031;-75
2022/02/28 01:27:50;;;;;;;75.38;35.25;;;-0.20;99.90;;;;;;2057764;28;20026;-74
2022/02/28 01:28:50;;;;;;;76.18;34.83;;;-0.20;99.90;;;;;;2058579;28;20034;-75
2022/02/28 01:29:51;;;;;;;73.13;34.75;;;-0.20;99.90;;;;;;2058721;28;20073;-75
2022/02/28 01:30:52;;;;;;;73.32;33.17;;;-0.20;99.90;;;;;;2058841;28;20019;-75
2022/02/28 01:31:52;;;;;;;73.70;33.70;;;-0.20;99.90;;;;;;2058577;28;20062;-74
2022/02/28 01:32:53;;;;;;;68.13;32.88;;;-0.20;99.90;;;;;;2058675;28;20077;-76
2022/02/28 01:33:55;;;;;;;70.13;33.00;;;-0.20;99.90;;;;;;2057958;28;20023;-74
2022/02/28 01:34:56;;;;;;;70.95;33.65;;;-0.20;99.90;;;;;;2065626;28;20022;-72
2022/02/28 01:35:57;;;;;;;69.80;33.63;;;-0.20;99.90;;;;;;2065418;28;20023;-73
2022/02/28 01:36:57;;;;;;;71.78;34.05;;;-0.20;99.90;;;;;;2065877;28;20046;-73
2022/02/28 01:37:58;;;;;;;70.72;34.17;;;-0.20;99.90;;;;;;2064945;28;20037;-74
2022/02/28 01:39:02;;;;;;;67.63;32.22;;;-0.20;99.90;;;;;;2065342;28;20030;-74
2022/02/28 01:40:04;;;;;;;67.20;32.17;;;-0.30;99.90;;;;;;2065496;28;20351;-73
2022/02/28 01:41:05;;;;;;;72.90;34.35;;;-0.30;99.90;;;;;;2058256;28;20042;-75
2022/02/28 01:42:05;;;;;;;69.32;32.67;;;-0.30;99.90;;;;;;2065547;28;20129;-72
2022/02/28 01:43:06;;;;;;;71.18;33.95;;;-0.30;99.90;;;;;;2057279;28;20035;-74
2022/02/28 01:44:08;;;;;;;67.43;32.88;;;-0.30;99.90;;;;;;2041248;29;20046;-72
2022/02/28 01:45:14;;;;;;;68.68;33.03;;;-0.30;99.90;;;;;;2041815;28;20035;-73
2022/02/28 01:46:15;;;;;;;69.30;32.60;;;-0.20;99.90;;;;;;2049969;28;20125;-72
2022/02/28 01:47:16;;;;;;;72.80;33.00;;;-0.20;99.90;;;;;;2057260;28;20019;-74
2022/02/28 01:48:16;;;;;;;64.82;31.42;;;-0.20;99.90;;;;;;2049660;29;20368;-72
2022/02/28 01:49:17;;;;;;;67.00;32.38;;;-0.20;99.90;;;;;;2050107;28;20035;-73
2022/02/28 01:50:18;;;;;;;67.38;32.38;;;-0.20;99.90;;;;;;2057660;28;20037;-75
2022/02/28 01:51:19;;;;;;;63.35;32.03;;;-0.20;99.90;;;;;;2050032;28;20610;-76
2022/02/28 01:52:24;;;;;;;66.47;32.45;;;-0.20;99.90;;;;;;2050134;28;20094;-74
2022/02/28 01:53:25;;;;;;;69.15;32.80;;;-0.20;99.90;;;;;;2050089;28;20606;-74
2022/02/28 01:54:26;;;;;;;69.30;32.65;;;-0.10;99.90;;;;;;2048768;29;20035;-74
2022/02/28 01:55:27;;;;;;;66.75;33.38;;;-0.10;99.90;;;;;;2049822;28;20510;-72
2022/02/28 01:56:27;;;;;;;71.20;33.55;;;-0.10;99.90;;;;;;2057945;28;20031;-72
2022/02/28 01:57:28;;;;;;;66.68;32.70;;;-0.10;99.90;;;;;;2057343;28;20031;-73
2022/02/28 01:58:36;;;;;;;71.32;33.67;;;-0.10;99.90;;;;;;2056630;28;20030;-73
2022/02/28 01:59:38;;;;;;;69.57;32.90;;;0.00;99.90;;;;;;2064104;28;20030;-74
2022/02/28 02:00:39;;;;;;;69.57;33.85;;;0.00;99.90;;;;;;2057075;28;20061;-76
2022/02/28 02:01:40;;;;;;;74.18;34.67;;;0.00;99.90;;;;;;2049290;29;20526;-73
2022/02/28 02:02:42;;;;;;;70.72;34.40;;;0.10;99.90;;;;;;2049802;28;20035;-72
2022/02/28 02:03:42;;;;;;;75.15;34.63;;;0.10;99.90;;;;;;2057954;28;20038;-72
2022/02/28 02:04:43;;;;;;;69.95;33.92;;;0.20;99.90;;;;;;2065360;28;20371;-72
2022/02/28 02:05:45;;;;;;;65.15;32.53;;;0.20;99.90;;;;;;2065944;28;20493;-73
2022/02/28 02:06:48;;;;;;;68.47;32.33;;;0.20;99.90;;;;;;2058926;28;20035;-74
2022/02/28 02:07:49;;;;;;;67.60;32.90;;;0.20;99.90;;;;;;2050557;28;20118;-73
2022/02/28 02:08:51;;;;;;;67.32;32.58;;;0.30;99.90;;;;;;2058461;28;20113;-73
2022/02/28 02:09:51;;;;;;;67.13;32.08;;;0.30;99.90;;;;;;2065911;28;20540;-72
2022/02/28 02:10:52;;;;;;;62.90;31.50;;;0.30;99.90;;;;;;2050369;28;20177;-74
2022/02/28 02:11:54;;;;;;;63.97;31.25;;;0.30;99.90;;;;;;2059170;28;20560;-74
2022/02/28 02:12:55;;;;;;;59.75;30.55;;;0.40;99.90;;;;;;2058266;28;20073;-73
2022/02/28 02:13:56;;;;;;;64.40;31.50;;;0.40;99.90;;;;;;2050175;29;20020;-75
2022/02/28 02:14:57;;;;;;;62.42;30.50;;;0.40;99.90;;;;;;2058525;28;20034;-74
2022/02/28 02:15:59;;;;;;;57.90;29.17;;;0.40;99.90;;;;;;2058909;28;20038;-73
2022/02/28 02:17:00;;;;;;;61.50;30.40;;;0.40;99.90;;;;;;2059510;28;20022;-75
2022/02/28 02:18:04;;;;;;;60.35;31.25;;;0.50;99.90;;;;;;2051100;29;20027;-73
2022/02/28 02:19:04;;;;;;;61.00;30.02;;;0.50;99.90;;;;;;2052427;28;20035;-73
2022/02/28 02:20:10;;;;;;;64.03;29.98;;;0.50;99.90;;;;;;2059637;28;20030;-73
2022/02/28 02:21:12;;;;;;;62.60;30.88;;;0.50;99.90;;;;;;2065938;28;20034;-73
2022/02/28 02:22:15;;;;;;;58.88;29.77;;;0.50;99.90;;;;;;2066173;28;20038;-73
2022/02/28 02:23:16;;;;;;;57.17;29.08;;;0.50;99.90;;;;;;2066268;28;20029;-73
2022/02/28 02:24:17;;;;;;;59.35;30.27;;;0.50;99.90;;;;;;2066498;28;20058;-73
2022/02/28 02:25:18;;;;;;;59.45;29.88;;;0.60;99.90;;;;;;2066523;28;20030;-74
2022/02/28 02:26:20;;;;;;;59.90;29.85;;;0.50;99.90;;;;;;2057954;28;20045;-73
2022/02/28 02:27:21;;;;;;;59.47;29.38;;;0.60;99.90;;;;;;2050619;28;20114;-72
2022/02/28 02:28:22;;;;;;;59.10;28.92;;;0.60;99.90;;;;;;2058351;28;20027;-73
2022/02/28 02:29:24;;;;;;;56.60;28.52;;;0.60;99.90;;;;;;2058691;28;20031;-73
2022/02/28 02:30:26;;;;;;;62.50;29.90;;;0.60;99.90;;;;;;2058398;28;20450;-73
2022/02/28 02:31:28;;;;;;;58.22;28.95;;;0.60;99.90;;;;;;2058553;28;20038;-73
2022/02/28 02:32:31;;;;;;;60.60;29.65;;;0.60;99.90;;;;;;2065072;28;20035;-75
2022/02/28 02:33:32;;;;;;;59.35;29.00;;;0.50;99.90;;;;;;2065322;28;20073;-75
2022/02/28 02:34:33;;;;;;;61.30;29.85;;;0.50;99.90;;;;;;2057334;28;20466;-74
2022/02/28 02:35:34;;;;;;;60.25;29.30;;;0.50;99.90;;;;;;2057776;28;20031;-74
2022/02/28 02:36:35;;;;;;;58.33;29.48;;;0.50;99.90;;;;;;2058241;28;20028;-74
2022/02/28 02:37:37;;;;;;;60.85;29.08;;;0.50;99.90;;;;;;2057214;28;20034;-74
2022/02/28 02:38:38;;;;;;;60.90;29.85;;;0.40;99.90;;;;;;2041632;29;20028;-74
2022/02/28 02:39:40;;;;;;;58.22;28.98;;;0.40;99.90;;;;;;2049916;28;20035;-74
2022/02/28 02:40:41;;;;;;;60.65;29.88;;;0.40;99.90;;;;;;2066110;28;20040;-74
2022/02/28 02:41:42;;;;;;;62.38;29.60;;;0.30;99.90;;;;;;2057788;28;20434;-73
2022/02/28 02:42:43;;;;;;;61.05;29.88;;;0.30;99.90;;;;;;2049416;28;20070;-74
2022/02/28 02:43:44;;;;;;;62.00;29.80;;;0.30;99.90;;;;;;2049291;29;20031;-73
2022/02/28 02:44:45;;;;;;;64.43;30.60;;;0.20;99.90;;;;;;2049442;28;20031;-75
2022/02/28 02:45:46;;;;;;;62.47;29.73;;;0.20;99.90;;;;;;2041490;29;20043;-75
2022/02/28 02:46:51;;;;;;;60.75;29.70;;;0.10;99.90;;;;;;2042012;29;20034;-74
2022/02/28 02:47:55;;;;;;;64.30;30.25;;;0.10;99.90;;;;;;2050007;28;20082;-76
2022/02/28 02:48:56;;;;;;;58.97;28.45;;;0.00;99.90;;;;;;2057648;28;20031;-75
2022/02/28 02:49:57;;;;;;;60.13;29.20;;;0.00;99.90;;;;;;2065695;28;20041;-73
2022/02/28 02:50:58;;;;;;;62.00;29.08;;;0.00;99.90;;;;;;2065761;28;20085;-73
2022/02/28 02:51:59;;;;;;;60.55;29.63;;;0.00;99.90;;;;;;2065856;28;20133;-73
2022/02/28 02:53:03;;;;;;;61.92;29.55;;;0.00;99.90;;;;;;2050016;28;20342;-73
2022/02/28 02:54:03;;;;;;;61.97;29.48;;;-0.10;99.90;;;;;;2049902;28;20023;-75
2022/02/28 02:55:05;;;;;;;63.08;30.20;;;-0.10;99.90;;;;;;2065404;28;20443;-75
2022/02/28 02:56:05;;;;;;;61.17;28.90;;;-0.10;99.90;;;;;;2065675;28;20026;-75
2022/02/28 02:57:08;;;;;;;63.53;30.13;;;-0.10;99.90;;;;;;2058624;28;20076;-74
2022/02/28 02:58:13;;;;;;;65.00;31.27;;;-0.10;99.90;;;;;;2059076;28;20018;-74
2022/02/28 02:59:14;;;;;;;60.42;29.50;;;-0.10;99.90;;;;;;2059774;28;20535;-74
2022/02/28 03:00:15;;;;;;;66.70;30.77;;;-0.20;99.90;;;;;;2066213;28;20077;-73
2022/02/28 03:01:39;;;;;;;66.07;30.23;;;-0.20;99.90;;;;;;2058690;28;20030;-73
2022/02/28 03:02:40;;;;;;;66.07;30.75;;;-0.20;99.90;;;;;;2057537;28;20035;-73
2022/02/28 03:03:40;;;;;;;65.53;31.23;;;-0.20;99.90;;;;;;2049260;29;20458;-74
2022/02/28 03:04:41;;;;;;;65.35;29.80;;;-0.20;99.90;;;;;;2057107;28;20027;-75
2022/02/28 03:05:43;;;;;;;68.43;30.42;;;-0.20;99.90;;;;;;2057140;28;20057;-74
2022/02/28 03:06:43;;;;;;;66.68;31.52;;;-0.20;99.90;;;;;;2041121;29;20527;-73
2022/02/28 03:07:46;;;;;;;66.68;30.42;;;-0.20;99.90;;;;;;2048710;28;20051;-74
2022/02/28 03:08:47;;;;;;;66.78;30.77;;;-0.20;99.90;;;;;;2057027;28;20508;-74
2022/02/28 03:09:48;;;;;;;64.47;30.40;;;-0.20;99.90;;;;;;2048955;29;20125;-73
2022/02/28 03:10:49;;;;;;;63.30;30.70;;;-0.20;99.90;;;;;;2057086;28;20485;-74
2022/02/28 03:11:51;;;;;;;64.70;31.08;;;-0.20;99.90;;;;;;2056939;28;20118;-74
2022/02/28 03:12:53;;;;;;;63.97;29.95;;;-0.10;99.90;;;;;;2056718;28;20022;-73
2022/02/28 03:13:55;;;;;;;61.38;29.38;;;-0.10;99.90;;;;;;2056565;28;20461;-74
2022/02/28 03:14:57;;;;;;;63.45;29.92;;;-0.10;99.90;;;;;;2049187;28;20554;-74
2022/02/28 03:15:58;;;;;;;66.53;30.73;;;0.00;99.90;;;;;;2048579;28;20019;-74
2022/02/28 03:17:00;;;;;;;65.85;30.75;;;0.00;99.90;;;;;;2048739;28;20038;-74
2022/02/28 03:18:01;;;;;;;62.38;30.33;;;0.00;99.90;;;;;;2055817;28;20031;-72
2022/02/28 03:19:01;;;;;;;64.50;30.58;;;0.00;99.90;;;;;;2064319;28;20429;-72
2022/02/28 03:20:04;;;;;;;65.68;30.70;;;0.10;99.90;;;;;;2056266;28;20552;-72
2022/02/28 03:21:05;;;;;;;62.80;28.70;;;0.10;99.90;;;;;;2064391;28;20716;-73
2022/02/28 03:22:05;;;;;;;65.47;29.63;;;0.20;99.90;;;;;;2064422;28;20042;-72
2022/02/28 03:23:10;;;;;;;61.53;28.75;;;0.20;99.90;;;;;;2056231;28;20465;-74
2022/02/28 03:24:11;;;;;;;59.55;28.58;;;0.30;99.90;;;;;;2048101;29;20626;-73
2022/02/28 03:25:12;;;;;;;62.40;30.10;;;0.30;99.90;;;;;;2056359;28;20045;-74
2022/02/28 03:26:18;;;;;;;62.60;30.13;;;0.30;99.90;;;;;;2048463;29;20051;-72
2022/02/28 03:27:19;;;;;;;64.75;29.42;;;0.40;99.90;;;;;;2049124;28;20028;-73
2022/02/28 03:28:23;;;;;;;66.25;30.38;;;0.40;99.90;;;;;;2063573;28;20524;-74
2022/02/28 03:29:24;;;;;;;63.38;30.70;;;0.40;99.90;;;;;;2064163;28;20025;-72
2022/02/28 03:30:25;;;;;;;65.18;31.40;;;0.40;99.90;;;;;;2056318;28;20430;-74
2022/02/28 03:31:26;;;;;;;61.83;30.60;;;0.50;99.90;;;;;;2048461;28;20022;-73
2022/02/28 03:32:27;;;;;;;60.88;29.85;;;0.50;99.90;;;;;;2048367;29;20035;-72
2022/02/28 03:33:28;;;;;;;58.13;29.23;;;0.50;99.90;;;;;;2059972;28;20062;-73
2022/02/28 03:34:39;;;;;;;59.78;29.02;;;0.50;99.90;;;;;;2055969;28;20026;-73
2022/02/28 03:35:41;;;;;;;60.88;29.40;;;0.50;99.90;;;;;;2051689;28;20046;-74
2022/02/28 03:36:41;;;;;;;61.35;30.10;;;0.50;99.90;;;;;;2056085;28;20472;-74
2022/02/28 03:37:49;;;;;;;59.45;29.00;;;0.60;99.90;;;;;;2048447;28;20030;-74
2022/02/28 03:38:50;;;;;;;59.53;29.60;;;0.60;99.90;;;;;;2048577;28;20038;-73
2022/02/28 03:39:51;;;;;;;58.10;28.55;;;0.60;99.90;;;;;;2056267;28;20548;-74
2022/02/28 03:40:52;;;;;;;58.65;28.77;;;0.60;99.90;;;;;;2048221;29;20035;-74
2022/02/28 03:41:55;;;;;;;56.58;28.77;;;0.60;99.90;;;;;;2056222;28;20061;-73
2022/02/28 03:42:57;;;;;;;58.42;28.55;;;0.60;99.90;;;;;;2056357;28;20031;-73
2022/02/28 03:43:59;;;;;;;59.75;29.58;;;0.60;99.90;;;;;;2048170;28;20023;-74
2022/02/28 03:45:05;;;;;;;58.42;28.23;;;0.70;99.90;;;;;;2056016;28;20023;-72
2022/02/28 03:46:07;;;;;;;59.55;28.75;;;0.70;99.90;;;;;;2048340;28;20031;-74
2022/02/28 03:47:30;;;;;;;60.92;28.35;;;0.70;99.90;;;;;;2056114;28;20568;-73
2022/02/28 03:49:03;;;;;;;60.10;29.70;;;0.70;99.90;;;;;;2048392;29;20034;-73
2022/02/28 03:50:18;;;;;;;64.88;30.45;;;0.70;99.90;;;;;;2050747;28;20468;-73
2022/02/28 03:51:19;;;;;;;59.63;29.15;;;0.60;99.90;;;;;;2056193;28;20045;-72
2022/02/28 03:52:20;;;;;;;60.45;30.05;;;0.60;99.90;;;;;;2048237;29;20019;-73
2022/02/28 03:53:34;;;;;;;62.78;30.85;;;0.60;99.90;;;;;;2044101;28;20027;-73
2022/02/28 03:54:37;;;;;;;56.80;29.42;;;0.60;99.90;;;;;;2056336;28;20558;-73
2022/02/28 03:55:38;;;;;;;56.40;28.73;;;0.60;99.90;;;;;;2056058;28;20027;-73
2022/02/28 03:56:42;;;;;;;61.08;30.13;;;0.60;99.90;;;;;;2055971;28;20069;-72
2022/02/28 03:57:43;;;;;;;61.65;30.33;;;0.60;99.90;;;;;;2063409;28;20088;-73
2022/02/28 03:58:46;;;;;;;61.53;30.35;;;0.60;99.90;;;;;;2056317;28;20038;-73
2022/02/28 03:59:47;;;;;;;62.88;30.67;;;0.70;99.90;;;;;;2059634;28;20029;-73
2022/02/28 04:00:48;;;;;;;61.80;30.10;;;0.70;99.90;;;;;;2049549;28;20114;-74
2022/02/28 04:01:54;;;;;;;59.17;29.67;;;0.70;99.90;;;;;;2049413;28;20023;-74
2022/02/28 04:03:07;;;;;;;58.25;28.85;;;0.70;99.90;;;;;;2050320;28;20081;-71
2022/02/28 04:04:10;;;;;;;60.25;29.02;;;0.70;99.90;;;;;;2048686;28;20033;-74
2022/02/28 04:05:11;;;;;;;60.58;30.00;;;0.70;99.90;;;;;;2049472;28;20039;-74
2022/02/28 04:06:13;;;;;;;64.63;31.13;;;0.70;99.90;;;;;;2041067;29;20055;-76
2022/02/28 04:07:23;;;;;;;64.60;31.48;;;0.70;99.90;;;;;;2049700;28;20051;-74
2022/02/28 04:08:24;;;;;;;62.97;31.05;;;0.70;99.90;;;;;;2056767;28;20053;-73
2022/02/28 04:09:25;;;;;;;65.25;31.63;;;0.70;99.90;;;;;;2048280;29;20167;-74
2022/02/28 04:10:26;;;;;;;63.13;31.40;;;0.70;99.90;;;;;;2050120;28;20024;-75
2022/02/28 04:11:28;;;;;;;62.20;30.63;;;0.70;99.90;;;;;;2059675;28;20023;-74
2022/02/28 04:12:29;;;;;;;65.28;31.38;;;0.70;99.90;;;;;;2059308;28;20026;-73
2022/02/28 04:13:30;;;;;;;60.10;30.70;;;0.70;99.90;;;;;;2051415;28;20027;-72
2022/02/28 04:14:31;;;;;;;63.60;31.08;;;0.70;99.90;;;;;;2058758;28;20082;-73
2022/02/28 04:15:32;;;;;;;60.88;30.58;;;0.70;99.90;;;;;;2058982;28;20544;-75
2022/02/28 04:16:33;;;;;;;61.05;29.98;;;0.70;99.90;;;;;;2059341;28;20045;-74
2022/02/28 04:17:57;;;;;;;61.88;30.15;;;0.70;99.90;;;;;;2058940;28;20038;-73
2022/02/28 04:19:26;;;;;;;63.17;30.25;;;0.70;99.90;;;;;;2059424;28;20030;-74
2022/02/28 04:20:27;;;;;;;62.60;31.30;;;0.60;99.90;;;;;;2066508;28;20034;-73
2022/02/28 04:21:27;;;;;;;62.85;31.75;;;0.60;99.90;;;;;;2058721;28;20031;-75
2022/02/28 04:22:29;;;;;;;62.90;31.27;;;0.60;99.90;;;;;;2058542;28;20043;-74
2022/02/28 04:23:30;;;;;;;60.63;30.25;;;0.60;99.90;;;;;;2059063;28;20050;-73
2022/02/28 04:24:31;;;;;;;60.97;31.67;;;0.60;99.90;;;;;;2050369;29;20165;-74
2022/02/28 04:25:32;;;;;;;63.40;31.20;;;0.60;99.90;;;;;;2058913;28;20034;-73
2022/02/28 04:26:35;;;;;;;59.90;30.15;;;0.50;99.90;;;;;;2050478;28;20038;-74
2022/02/28 04:27:36;;;;;;;58.65;29.85;;;0.50;99.90;;;;;;2050070;28;20023;-73
2022/02/28 04:28:40;;;;;;;59.97;30.58;;;0.50;99.90;;;;;;2051266;28;20102;-74
2022/02/28 04:29:40;;;;;;;63.05;31.10;;;0.50;99.90;;;;;;2058642;28;20065;-73
2022/02/28 04:30:50;;;;;;;62.85;29.90;;;0.40;99.90;;;;;;2058915;28;20018;-73
2022/02/28 04:31:51;;;;;;;65.25;31.13;;;0.40;99.90;;;;;;2058953;28;20540;-72
2022/02/28 04:32:52;;;;;;;61.97;30.77;;;0.30;99.90;;;;;;2058422;28;20026;-72
2022/02/28 04:33:53;;;;;;;66.15;31.35;;;0.30;99.90;;;;;;2050542;29;20387;-73
2022/02/28 04:34:53;;;;;;;65.05;31.13;;;0.20;99.90;;;;;;2050420;28;20019;-73
2022/02/28 04:35:54;;;;;;;63.25;30.90;;;0.20;99.90;;;;;;2050806;28;20028;-72
2022/02/28 04:36:56;;;;;;;67.10;31.88;;;0.10;99.90;;;;;;2050685;28;20045;-72
2022/02/28 04:38:01;;;;;;;62.28;31.33;;;0.10;99.90;;;;;;2050484;28;20479;-74
2022/02/28 04:39:03;;;;;;;67.32;32.20;;;0.10;99.90;;;;;;2050914;28;20039;-73
2022/02/28 04:40:06;;;;;;;68.10;32.17;;;0.10;99.90;;;;;;2051352;28;20034;-73
2022/02/28 04:41:09;;;;;;;70.43;32.70;;;0.00;99.90;;;;;;2058360;28;20034;-74
2022/02/28 04:42:11;;;;;;;66.00;32.95;;;0.00;99.90;;;;;;2050640;28;20027;-73
2022/02/28 04:43:12;;;;;;;67.55;33.28;;;0.00;99.90;;;;;;2042869;28;20070;-72
2022/02/28 04:44:14;;;;;;;69.55;32.00;;;0.00;99.90;;;;;;2050717;28;20027;-73
2022/02/28 04:45:16;;;;;;;66.63;32.55;;;-0.10;99.90;;;;;;2058708;28;20026;-72
2022/02/28 04:46:16;;;;;;;64.63;31.73;;;-0.10;99.90;;;;;;2059435;28;20787;-74
2022/02/28 04:47:17;;;;;;;66.80;32.13;;;-0.10;99.90;;;;;;2058889;28;20110;-74
2022/02/28 04:48:44;;;;;;;70.32;32.08;;;-0.20;99.90;;;;;;2046519;28;20035;-72
2022/02/28 04:49:58;;;;;;;64.68;30.05;;;-0.20;99.90;;;;;;2058475;28;20031;-72
2022/02/28 04:51:00;;;;;;;64.85;30.58;;;-0.30;99.90;;;;;;2051162;28;20026;-72
2022/02/28 04:52:00;;;;;;;66.00;31.08;;;-0.30;99.90;;;;;;2051421;28;20057;-73
2022/02/28 04:53:01;;;;;;;66.35;31.52;;;-0.30;99.90;;;;;;2061717;28;20022;-74
2022/02/28 04:54:02;;;;;;;67.18;31.30;;;-0.40;99.90;;;;;;2068195;28;20410;-75
2022/02/28 04:55:03;;;;;;;64.05;30.70;;;-0.40;99.90;;;;;;2067979;28;20022;-73
2022/02/28 04:56:05;;;;;;;64.65;31.25;;;-0.40;99.90;;;;;;2061713;28;20030;-74
2022/02/28 04:57:07;;;;;;;67.60;31.08;;;-0.50;99.90;;;;;;2056943;28;20031;-74
2022/02/28 04:58:07;;;;;;;64.00;30.75;;;-0.50;99.90;;;;;;2066181;28;20018;-74
2022/02/28 04:59:26;;;;;;;67.15;31.77;;;-0.50;99.90;;;;;;2070240;28;20038;-75
2022/02/28 05:00:29;;;;;;;65.05;30.75;;;-0.60;99.90;;;;;;2063798;28;20037;-73
2022/02/28 05:01:31;;;;;;;68.00;31.35;;;-0.60;99.90;;;;;;2061793;28;20073;-74
2022/02/28 05:02:39;;;;;;;68.78;31.90;;;-0.60;99.90;;;;;;2060474;28;20410;-75
2022/02/28 05:03:50;;;;;;;71.38;32.45;;;-0.60;99.90;;;;;;2057558;28;20060;-73
2022/02/28 05:04:51;;;;;;;67.43;30.92;;;-0.60;99.90;;;;;;2044151;29;20036;-74
2022/02/28 05:05:52;;;;;;;68.97;32.47;;;-0.60;99.90;;;;;;2051168;28;20031;-74
2022/02/28 05:06:53;;;;;;;65.25;31.55;;;-0.60;99.90;;;;;;2051193;28;20023;-73
2022/02/28 05:07:54;;;;;;;74.03;33.83;;;-0.70;99.90;;;;;;2058481;28;20027;-73
2022/02/28 05:08:55;;;;;;;66.22;31.75;;;-0.70;99.90;;;;;;2058642;28;20030;-75
2022/02/28 05:09:57;;;;;;;68.53;32.30;;;-0.70;99.90;;;;;;2059007;28;20062;-74
2022/02/28 05:10:57;;;;;;;67.80;32.20;;;-0.80;99.90;;;;;;2051081;29;20372;-73
2022/02/28 05:11:58;;;;;;;69.20;32.30;;;-0.80;99.90;;;;;;2042911;29;20026;-73
2022/02/28 05:12:59;;;;;;;68.32;32.38;;;-0.80;99.90;;;;;;2051136;28;20050;-74
2022/02/28 05:14:00;;;;;;;68.38;32.45;;;-0.70;99.90;;;;;;2058727;28;20121;-72
2022/02/28 05:15:01;;;;;;;68.00;32.45;;;-0.80;99.90;;;;;;2059036;28;20050;-75
2022/02/28 05:16:02;;;;;;;65.47;31.67;;;-0.80;99.90;;;;;;2058565;28;20490;-73
2022/02/28 05:17:04;;;;;;;69.10;32.65;;;-0.80;99.90;;;;;;2058795;28;20023;-73